sensor_id;sensor_type;location;lat;lon;timestamp;P1;durP1;ratioP1;P2;durP2;ratioP2
32523;SDS011;18965;52.242;20.886;2023-02-10T00:01:08;188.32;;;68.35;;
32523;SDS011;18965;52.242;20.886;2023-02-10T00:03:39;178.45;;;67.07;;
32523;SDS011;18965;52.242;20.886;2023-02-10T00:06:06;201.27;;;69.35;;
32523;SDS011;18965;52.242;20.886;2023-02-10T00:08:33;192.02;;;68.85;;
32523;SDS011;18965;52.242;20.886;2023-02-10T00:11:00;190.27;;;69.18;;
32523;SDS011;18965;52.242;20.886;2023-02-10T00:13:31;211.00;;;72.10;;
32523;SDS011;18965;52.242;20.886;2023-02-10T00:15:58;223.32;;;72.28;;
32523;SDS011;18965;52.242;20.886;2023-02-10T00:18:28;200.23;;;70.53;;
32523;SDS011;18965;52.242;20.886;2023-02-10T00:20:54;206.55;;;71.30;;
32523;SDS011;18965;52.242;20.886;2023-02-10T00:23:20;214.73;;;70.97;;
32523;SDS011;18965;52.242;20.886;2023-02-10T00:25:46;233.45;;;74.35;;
32523;SDS011;18965;52.242;20.886;2023-02-10T00:28:12;232.57;;;75.97;;
32523;SDS011;18965;52.242;20.886;2023-02-10T00:30:37;232.93;;;75.35;;
32523;SDS011;18965;52.242;20.886;2023-02-10T00:33:04;224.68;;;74.65;;
32523;SDS011;18965;52.242;20.886;2023-02-10T00:35:30;229.25;;;74.20;;
32523;SDS011;18965;52.242;20.886;2023-02-10T00:37:56;230.80;;;75.57;;
32523;SDS011;18965;52.242;20.886;2023-02-10T00:40:22;243.15;;;77.53;;
32523;SDS011;18965;52.242;20.886;2023-02-10T00:42:47;235.80;;;76.05;;
32523;SDS011;18965;52.242;20.886;2023-02-10T00:45:13;225.68;;;75.90;;
32523;SDS011;18965;52.242;20.886;2023-02-10T00:47:39;258.35;;;78.57;;
32523;SDS011;18965;52.242;20.886;2023-02-10T00:50:05;229.18;;;73.85;;
32523;SDS011;18965;52.242;20.886;2023-02-10T00:52:31;216.00;;;71.65;;
32523;SDS011;18965;52.242;20.886;2023-02-10T00:54:57;250.60;;;76.97;;
32523;SDS011;18965;52.242;20.886;2023-02-10T00:57:22;238.00;;;75.88;;
32523;SDS011;18965;52.242;20.886;2023-02-10T00:59:48;226.32;;;73.55;;
32523;SDS011;18965;52.242;20.886;2023-02-10T01:02:14;233.23;;;74.20;;
32523;SDS011;18965;52.242;20.886;2023-02-10T01:04:39;231.68;;;75.28;;
32523;SDS011;18965;52.242;20.886;2023-02-10T01:07:05;217.80;;;73.72;;
32523;SDS011;18965;52.242;20.886;2023-02-10T01:09:31;231.15;;;76.55;;
32523;SDS011;18965;52.242;20.886;2023-02-10T01:11:57;214.13;;;73.38;;
32523;SDS011;18965;52.242;20.886;2023-02-10T01:14:23;214.50;;;74.72;;
32523;SDS011;18965;52.242;20.886;2023-02-10T01:16:49;213.35;;;73.70;;
32523;SDS011;18965;52.242;20.886;2023-02-10T01:19:15;217.43;;;73.78;;
32523;SDS011;18965;52.242;20.886;2023-02-10T01:21:41;207.90;;;71.88;;
32523;SDS011;18965;52.242;20.886;2023-02-10T01:24:06;215.05;;;73.22;;
32523;SDS011;18965;52.242;20.886;2023-02-10T01:26:32;214.38;;;72.95;;
32523;SDS011;18965;52.242;20.886;2023-02-10T01:28:59;223.43;;;75.75;;
32523;SDS011;18965;52.242;20.886;2023-02-10T01:31:25;228.18;;;75.85;;
32523;SDS011;18965;52.242;20.886;2023-02-10T01:33:52;250.45;;;79.38;;
32523;SDS011;18965;52.242;20.886;2023-02-10T01:36:20;233.82;;;76.45;;
32523;SDS011;18965;52.242;20.886;2023-02-10T01:38:48;250.05;;;80.55;;
32523;SDS011;18965;52.242;20.886;2023-02-10T01:41:15;243.80;;;78.72;;
32523;SDS011;18965;52.242;20.886;2023-02-10T01:43:53;253.13;;;78.95;;
32523;SDS011;18965;52.242;20.886;2023-02-10T01:46:21;265.48;;;91.18;;
32523;SDS011;18965;52.242;20.886;2023-02-10T01:48:47;248.15;;;78.38;;
32523;SDS011;18965;52.242;20.886;2023-02-10T01:51:12;255.50;;;79.40;;
32523;SDS011;18965;52.242;20.886;2023-02-10T01:53:40;244.20;;;77.28;;
32523;SDS011;18965;52.242;20.886;2023-02-10T01:56:08;245.30;;;78.43;;
32523;SDS011;18965;52.242;20.886;2023-02-10T01:58:37;230.43;;;75.38;;
32523;SDS011;18965;52.242;20.886;2023-02-10T02:01:06;247.95;;;77.50;;
32523;SDS011;18965;52.242;20.886;2023-02-10T02:03:32;246.75;;;78.93;;
32523;SDS011;18965;52.242;20.886;2023-02-10T02:05:59;228.98;;;76.43;;
32523;SDS011;18965;52.242;20.886;2023-02-10T02:08:25;237.15;;;76.72;;
32523;SDS011;18965;52.242;20.886;2023-02-10T02:13:43;236.30;;;77.32;;
32523;SDS011;18965;52.242;20.886;2023-02-10T02:30:55;220.30;;;72.82;;
32523;SDS011;18965;52.242;20.886;2023-02-10T02:33:40;215.70;;;72.53;;
32523;SDS011;18965;52.242;20.886;2023-02-10T02:36:21;241.50;;;78.15;;
32523;SDS011;18965;52.242;20.886;2023-02-10T02:39:00;213.25;;;73.20;;
32523;SDS011;18965;52.242;20.886;2023-02-10T02:41:27;223.10;;;75.15;;
32523;SDS011;18965;52.242;20.886;2023-02-10T02:43:53;231.55;;;74.40;;
32523;SDS011;18965;52.242;20.886;2023-02-10T02:47:07;227.85;;;74.90;;
32523;SDS011;18965;52.242;20.886;2023-02-10T02:49:19;234.27;;;75.60;;
32523;SDS011;18965;52.242;20.886;2023-02-10T02:52:04;209.70;;;73.13;;
32523;SDS011;18965;52.242;20.886;2023-02-10T02:57:18;206.32;;;71.72;;
32523;SDS011;18965;52.242;20.886;2023-02-10T02:59:57;244.40;;;75.80;;
32523;SDS011;18965;52.242;20.886;2023-02-10T03:02:29;220.65;;;74.28;;
32523;SDS011;18965;52.242;20.886;2023-02-10T03:04:58;197.23;;;70.68;;
32523;SDS011;18965;52.242;20.886;2023-02-10T03:07:24;221.57;;;73.45;;
32523;SDS011;18965;52.242;20.886;2023-02-10T03:09:50;213.45;;;73.22;;
32523;SDS011;18965;52.242;20.886;2023-02-10T03:12:16;204.95;;;71.50;;
32523;SDS011;18965;52.242;20.886;2023-02-10T03:14:42;211.38;;;70.07;;
32523;SDS011;18965;52.242;20.886;2023-02-10T03:17:07;210.15;;;72.00;;
32523;SDS011;18965;52.242;20.886;2023-02-10T03:19:33;219.88;;;74.53;;
32523;SDS011;18965;52.242;20.886;2023-02-10T03:21:59;226.18;;;73.82;;
32523;SDS011;18965;52.242;20.886;2023-02-10T03:24:25;206.57;;;72.68;;
32523;SDS011;18965;52.242;20.886;2023-02-10T03:26:51;202.50;;;70.57;;
32523;SDS011;18965;52.242;20.886;2023-02-10T03:29:17;214.70;;;73.38;;
32523;SDS011;18965;52.242;20.886;2023-02-10T03:31:43;233.23;;;74.43;;
32523;SDS011;18965;52.242;20.886;2023-02-10T03:34:09;209.25;;;72.25;;
32523;SDS011;18965;52.242;20.886;2023-02-10T03:36:35;244.00;;;77.40;;
32523;SDS011;18965;52.242;20.886;2023-02-10T03:39:01;207.20;;;71.78;;
32523;SDS011;18965;52.242;20.886;2023-02-10T03:41:28;211.73;;;71.63;;
32523;SDS011;18965;52.242;20.886;2023-02-10T03:43:54;223.68;;;83.57;;
32523;SDS011;18965;52.242;20.886;2023-02-10T03:46:20;233.63;;;76.25;;
32523;SDS011;18965;52.242;20.886;2023-02-10T03:48:46;230.85;;;75.07;;
32523;SDS011;18965;52.242;20.886;2023-02-10T03:51:12;220.52;;;72.30;;
32523;SDS011;18965;52.242;20.886;2023-02-10T03:53:37;223.05;;;76.47;;
32523;SDS011;18965;52.242;20.886;2023-02-10T03:56:03;238.40;;;77.60;;
32523;SDS011;18965;52.242;20.886;2023-02-10T03:58:30;232.77;;;75.10;;
32523;SDS011;18965;52.242;20.886;2023-02-10T04:00:55;217.73;;;73.85;;
32523;SDS011;18965;52.242;20.886;2023-02-10T04:03:21;225.25;;;73.57;;
32523;SDS011;18965;52.242;20.886;2023-02-10T04:05:47;222.45;;;73.22;;
32523;SDS011;18965;52.242;20.886;2023-02-10T04:08:13;214.40;;;71.35;;
32523;SDS011;18965;52.242;20.886;2023-02-10T04:10:38;206.60;;;72.30;;
32523;SDS011;18965;52.242;20.886;2023-02-10T04:13:04;220.70;;;71.78;;
32523;SDS011;18965;52.242;20.886;2023-02-10T04:15:30;209.30;;;72.20;;
32523;SDS011;18965;52.242;20.886;2023-02-10T04:17:56;215.40;;;74.05;;
32523;SDS011;18965;52.242;20.886;2023-02-10T04:20:22;212.63;;;72.88;;
32523;SDS011;18965;52.242;20.886;2023-02-10T04:22:48;202.50;;;69.72;;
32523;SDS011;18965;52.242;20.886;2023-02-10T04:25:14;205.65;;;70.50;;
32523;SDS011;18965;52.242;20.886;2023-02-10T04:27:39;222.82;;;74.32;;
32523;SDS011;18965;52.242;20.886;2023-02-10T04:30:05;223.55;;;72.55;;
32523;SDS011;18965;52.242;20.886;2023-02-10T04:32:32;201.85;;;70.80;;
32523;SDS011;18965;52.242;20.886;2023-02-10T04:34:59;231.88;;;78.57;;
32523;SDS011;18965;52.242;20.886;2023-02-10T04:37:25;203.93;;;70.38;;
32523;SDS011;18965;52.242;20.886;2023-02-10T04:39:51;224.48;;;71.82;;
32523;SDS011;18965;52.242;20.886;2023-02-10T04:42:16;186.73;;;66.93;;
32523;SDS011;18965;52.242;20.886;2023-02-10T04:44:42;199.60;;;71.45;;
32523;SDS011;18965;52.242;20.886;2023-02-10T04:47:08;208.38;;;69.72;;
32523;SDS011;18965;52.242;20.886;2023-02-10T04:49:33;201.90;;;68.15;;
32523;SDS011;18965;52.242;20.886;2023-02-10T04:51:59;205.23;;;68.70;;
32523;SDS011;18965;52.242;20.886;2023-02-10T04:54:25;187.82;;;66.90;;
32523;SDS011;18965;52.242;20.886;2023-02-10T04:56:50;179.50;;;66.00;;
32523;SDS011;18965;52.242;20.886;2023-02-10T04:59:16;178.45;;;67.18;;
32523;SDS011;18965;52.242;20.886;2023-02-10T05:01:42;171.43;;;63.50;;
32523;SDS011;18965;52.242;20.886;2023-02-10T05:04:07;216.02;;;74.63;;
32523;SDS011;18965;52.242;20.886;2023-02-10T05:06:33;198.13;;;68.40;;
32523;SDS011;18965;52.242;20.886;2023-02-10T05:08:59;181.63;;;67.18;;
32523;SDS011;18965;52.242;20.886;2023-02-10T05:11:25;207.93;;;68.68;;
32523;SDS011;18965;52.242;20.886;2023-02-10T05:13:51;177.13;;;65.03;;
32523;SDS011;18965;52.242;20.886;2023-02-10T05:16:16;198.32;;;69.88;;
32523;SDS011;18965;52.242;20.886;2023-02-10T05:18:42;180.88;;;66.40;;
32523;SDS011;18965;52.242;20.886;2023-02-10T05:21:08;187.05;;;64.20;;
32523;SDS011;18965;52.242;20.886;2023-02-10T05:23:36;187.05;;;69.25;;
32523;SDS011;18965;52.242;20.886;2023-02-10T05:26:04;200.20;;;68.80;;
32523;SDS011;18965;52.242;20.886;2023-02-10T05:28:30;188.30;;;66.72;;
32523;SDS011;18965;52.242;20.886;2023-02-10T05:30:56;177.32;;;63.60;;
32523;SDS011;18965;52.242;20.886;2023-02-10T05:33:22;181.45;;;66.40;;
32523;SDS011;18965;52.242;20.886;2023-02-10T05:35:48;178.55;;;66.07;;
32523;SDS011;18965;52.242;20.886;2023-02-10T05:38:13;181.27;;;66.40;;
32523;SDS011;18965;52.242;20.886;2023-02-10T05:40:39;175.10;;;66.38;;
32523;SDS011;18965;52.242;20.886;2023-02-10T05:43:05;170.95;;;65.78;;
32523;SDS011;18965;52.242;20.886;2023-02-10T05:45:32;194.43;;;66.20;;
32523;SDS011;18965;52.242;20.886;2023-02-10T05:47:58;202.50;;;68.72;;
32523;SDS011;18965;52.242;20.886;2023-02-10T05:50:24;192.63;;;66.18;;
32523;SDS011;18965;52.242;20.886;2023-02-10T05:52:50;204.82;;;67.90;;
32523;SDS011;18965;52.242;20.886;2023-02-10T05:55:15;190.25;;;66.75;;
32523;SDS011;18965;52.242;20.886;2023-02-10T05:57:41;188.27;;;64.82;;
32523;SDS011;18965;52.242;20.886;2023-02-10T06:00:07;178.77;;;63.58;;
32523;SDS011;18965;52.242;20.886;2023-02-10T06:02:34;184.68;;;66.25;;
32523;SDS011;18965;52.242;20.886;2023-02-10T06:04:59;180.20;;;65.35;;
32523;SDS011;18965;52.242;20.886;2023-02-10T06:07:26;176.35;;;63.20;;
32523;SDS011;18965;52.242;20.886;2023-02-10T06:09:52;171.50;;;62.53;;
32523;SDS011;18965;52.242;20.886;2023-02-10T06:12:18;124.95;;;56.10;;
32523;SDS011;18965;52.242;20.886;2023-02-10T06:14:44;136.55;;;57.85;;
32523;SDS011;18965;52.242;20.886;2023-02-10T06:17:10;142.30;;;60.05;;
32523;SDS011;18965;52.242;20.886;2023-02-10T06:19:36;164.20;;;61.60;;
32523;SDS011;18965;52.242;20.886;2023-02-10T06:22:03;139.60;;;70.10;;
32523;SDS011;18965;52.242;20.886;2023-02-10T06:24:31;138.10;;;70.07;;
32523;SDS011;18965;52.242;20.886;2023-02-10T06:26:56;135.85;;;58.53;;
32523;SDS011;18965;52.242;20.886;2023-02-10T06:29:24;163.77;;;62.05;;
32523;SDS011;18965;52.242;20.886;2023-02-10T06:31:49;144.95;;;58.70;;
32523;SDS011;18965;52.242;20.886;2023-02-10T06:34:15;134.23;;;59.38;;
32523;SDS011;18965;52.242;20.886;2023-02-10T06:36:41;149.63;;;62.67;;
32523;SDS011;18965;52.242;20.886;2023-02-10T06:39:07;149.80;;;60.17;;
32523;SDS011;18965;52.242;20.886;2023-02-10T06:41:33;138.45;;;59.28;;
32523;SDS011;18965;52.242;20.886;2023-02-10T06:43:59;145.82;;;61.58;;
32523;SDS011;18965;52.242;20.886;2023-02-10T06:46:26;153.57;;;61.88;;
32523;SDS011;18965;52.242;20.886;2023-02-10T06:48:53;161.75;;;63.30;;
32523;SDS011;18965;52.242;20.886;2023-02-10T06:51:18;147.27;;;61.42;;
32523;SDS011;18965;52.242;20.886;2023-02-10T06:53:44;158.23;;;62.42;;
32523;SDS011;18965;52.242;20.886;2023-02-10T06:56:11;159.63;;;64.55;;
32523;SDS011;18965;52.242;20.886;2023-02-10T06:58:37;158.38;;;75.70;;
32523;SDS011;18965;52.242;20.886;2023-02-10T07:01:22;187.25;;;78.20;;
32523;SDS011;18965;52.242;20.886;2023-02-10T07:03:58;143.73;;;60.58;;
32523;SDS011;18965;52.242;20.886;2023-02-10T07:06:27;160.93;;;63.95;;
32523;SDS011;18965;52.242;20.886;2023-02-10T07:08:52;162.23;;;63.53;;
32523;SDS011;18965;52.242;20.886;2023-02-10T07:11:18;179.57;;;66.25;;
32523;SDS011;18965;52.242;20.886;2023-02-10T07:13:44;170.30;;;65.25;;
32523;SDS011;18965;52.242;20.886;2023-02-10T07:16:10;147.00;;;61.33;;
32523;SDS011;18965;52.242;20.886;2023-02-10T07:18:39;173.98;;;63.25;;
32523;SDS011;18965;52.242;20.886;2023-02-10T07:21:06;162.60;;;64.80;;
32523;SDS011;18965;52.242;20.886;2023-02-10T07:23:31;173.15;;;63.97;;
32523;SDS011;18965;52.242;20.886;2023-02-10T07:25:57;99.53;;;22.60;;
32523;SDS011;18965;52.242;20.886;2023-02-10T07:28:23;47.47;;;17.77;;
32523;SDS011;18965;52.242;20.886;2023-02-10T07:30:48;59.20;;;18.25;;
32523;SDS011;18965;52.242;20.886;2023-02-10T07:33:14;90.20;;;20.85;;
32523;SDS011;18965;52.242;20.886;2023-02-10T07:35:40;55.13;;;18.15;;
32523;SDS011;18965;52.242;20.886;2023-02-10T07:38:06;75.15;;;20.73;;
32523;SDS011;18965;52.242;20.886;2023-02-10T07:40:31;47.95;;;18.92;;
32523;SDS011;18965;52.242;20.886;2023-02-10T07:42:58;81.25;;;23.55;;
32523;SDS011;18965;52.242;20.886;2023-02-10T07:45:23;52.72;;;17.08;;
32523;SDS011;18965;52.242;20.886;2023-02-10T07:47:51;53.55;;;19.05;;
32523;SDS011;18965;52.242;20.886;2023-02-10T07:50:17;52.53;;;18.90;;
32523;SDS011;18965;52.242;20.886;2023-02-10T07:52:43;54.45;;;18.23;;
32523;SDS011;18965;52.242;20.886;2023-02-10T07:55:09;171.15;;;69.35;;
32523;SDS011;18965;52.242;20.886;2023-02-10T07:57:34;155.90;;;63.28;;
32523;SDS011;18965;52.242;20.886;2023-02-10T08:00:03;55.67;;;18.52;;
32523;SDS011;18965;52.242;20.886;2023-02-10T08:02:30;58.70;;;19.92;;
32523;SDS011;18965;52.242;20.886;2023-02-10T08:04:56;57.33;;;19.02;;
32523;SDS011;18965;52.242;20.886;2023-02-10T08:07:23;93.53;;;22.27;;
32523;SDS011;18965;52.242;20.886;2023-02-10T08:09:51;52.95;;;18.90;;
32523;SDS011;18965;52.242;20.886;2023-02-10T08:12:17;65.03;;;19.73;;
32523;SDS011;18965;52.242;20.886;2023-02-10T08:14:42;54.17;;;18.25;;
32523;SDS011;18965;52.242;20.886;2023-02-10T08:17:08;56.13;;;19.45;;
32523;SDS011;18965;52.242;20.886;2023-02-10T08:19:34;79.10;;;21.17;;
32523;SDS011;18965;52.242;20.886;2023-02-10T08:22:02;59.60;;;19.77;;
32523;SDS011;18965;52.242;20.886;2023-02-10T08:24:30;83.28;;;19.65;;
32523;SDS011;18965;52.242;20.886;2023-02-10T08:26:56;67.10;;;17.73;;
32523;SDS011;18965;52.242;20.886;2023-02-10T08:29:22;80.47;;;23.10;;
32523;SDS011;18965;52.242;20.886;2023-02-10T08:31:49;52.03;;;19.92;;
32523;SDS011;18965;52.242;20.886;2023-02-10T08:34:19;60.65;;;19.15;;
32523;SDS011;18965;52.242;20.886;2023-02-10T08:36:45;53.55;;;19.08;;
32523;SDS011;18965;52.242;20.886;2023-02-10T08:39:12;56.17;;;18.17;;
32523;SDS011;18965;52.242;20.886;2023-02-10T08:41:39;65.65;;;20.08;;
32523;SDS011;18965;52.242;20.886;2023-02-10T08:44:05;65.53;;;21.40;;
32523;SDS011;18965;52.242;20.886;2023-02-10T08:46:32;62.58;;;19.90;;
32523;SDS011;18965;52.242;20.886;2023-02-10T08:51:28;99.15;;;47.35;;
32523;SDS011;18965;52.242;20.886;2023-02-10T08:53:55;74.85;;;44.35;;
32523;SDS011;18965;52.242;20.886;2023-02-10T08:56:21;84.10;;;46.38;;
32523;SDS011;18965;52.242;20.886;2023-02-10T08:58:47;105.25;;;50.15;;
32523;SDS011;18965;52.242;20.886;2023-02-10T09:01:17;83.95;;;47.00;;
32523;SDS011;18965;52.242;20.886;2023-02-10T09:03:45;96.10;;;47.83;;
32523;SDS011;18965;52.242;20.886;2023-02-10T09:06:32;88.32;;;45.00;;
32523;SDS011;18965;52.242;20.886;2023-02-10T09:09:08;177.88;;;53.95;;
32523;SDS011;18965;52.242;20.886;2023-02-10T09:11:35;70.18;;;41.95;;
32523;SDS011;18965;52.242;20.886;2023-02-10T09:14:04;92.05;;;45.28;;
32523;SDS011;18965;52.242;20.886;2023-02-10T09:16:32;78.20;;;45.58;;
32523;SDS011;18965;52.242;20.886;2023-02-10T09:18:58;85.95;;;44.33;;
32523;SDS011;18965;52.242;20.886;2023-02-10T09:21:24;71.22;;;40.53;;
32523;SDS011;18965;52.242;20.886;2023-02-10T09:23:50;68.47;;;38.80;;
32523;SDS011;18965;52.242;20.886;2023-02-10T09:26:16;50.47;;;30.67;;
32523;SDS011;18965;52.242;20.886;2023-02-10T09:28:43;82.97;;;33.97;;
32523;SDS011;18965;52.242;20.886;2023-02-10T09:31:10;59.72;;;31.55;;
32523;SDS011;18965;52.242;20.886;2023-02-10T09:33:37;68.65;;;35.20;;
32523;SDS011;18965;52.242;20.886;2023-02-10T09:36:04;81.25;;;31.83;;
32523;SDS011;18965;52.242;20.886;2023-02-10T09:38:30;84.45;;;36.10;;
32523;SDS011;18965;52.242;20.886;2023-02-10T09:45:51;73.75;;;36.17;;
32523;SDS011;18965;52.242;20.886;2023-02-10T09:48:29;97.93;;;37.70;;
32523;SDS011;18965;52.242;20.886;2023-02-10T09:51:14;105.88;;;35.95;;
32523;SDS011;18965;52.242;20.886;2023-02-10T09:53:52;53.28;;;29.83;;
32523;SDS011;18965;52.242;20.886;2023-02-10T09:56:19;141.98;;;38.63;;
32523;SDS011;18965;52.242;20.886;2023-02-10T09:58:54;53.38;;;26.17;;
32523;SDS011;18965;52.242;20.886;2023-02-10T10:01:29;59.00;;;27.27;;
32523;SDS011;18965;52.242;20.886;2023-02-10T10:04:17;65.35;;;29.17;;
32523;SDS011;18965;52.242;20.886;2023-02-10T10:06:47;73.50;;;32.72;;
32523;SDS011;18965;52.242;20.886;2023-02-10T10:12:02;54.65;;;30.30;;
32523;SDS011;18965;52.242;20.886;2023-02-10T10:14:35;206.30;;;44.92;;
32523;SDS011;18965;52.242;20.886;2023-02-10T10:22:34;58.95;;;24.30;;
32523;SDS011;18965;52.242;20.886;2023-02-10T10:28:40;73.35;;;30.35;;
32523;SDS011;18965;52.242;20.886;2023-02-10T10:31:18;55.40;;;21.67;;
32523;SDS011;18965;52.242;20.886;2023-02-10T10:36:49;72.85;;;21.98;;
32523;SDS011;18965;52.242;20.886;2023-02-10T10:39:32;68.40;;;21.90;;
32523;SDS011;18965;52.242;20.886;2023-02-10T10:42:46;51.05;;;20.27;;
32523;SDS011;18965;52.242;20.886;2023-02-10T10:44:59;57.75;;;19.55;;
32523;SDS011;18965;52.242;20.886;2023-02-10T10:47:36;54.03;;;21.13;;
32523;SDS011;18965;52.242;20.886;2023-02-10T10:50:23;63.65;;;21.42;;
32523;SDS011;18965;52.242;20.886;2023-02-10T10:52:50;96.80;;;25.92;;
32523;SDS011;18965;52.242;20.886;2023-02-10T10:55:25;81.45;;;24.88;;
32523;SDS011;18965;52.242;20.886;2023-02-10T10:57:56;86.28;;;27.55;;
32523;SDS011;18965;52.242;20.886;2023-02-10T11:00:26;73.05;;;25.02;;
32523;SDS011;18965;52.242;20.886;2023-02-10T11:03:03;63.08;;;23.95;;
32523;SDS011;18965;52.242;20.886;2023-02-10T11:05:30;57.47;;;23.27;;
32523;SDS011;18965;52.242;20.886;2023-02-10T11:07:58;57.08;;;26.38;;
32523;SDS011;18965;52.242;20.886;2023-02-10T11:10:38;56.90;;;23.42;;
32523;SDS011;18965;52.242;20.886;2023-02-10T11:13:19;54.63;;;21.35;;
32523;SDS011;18965;52.242;20.886;2023-02-10T11:15:46;47.92;;;20.23;;
32523;SDS011;18965;52.242;20.886;2023-02-10T11:18:20;61.22;;;21.23;;
32523;SDS011;18965;52.242;20.886;2023-02-10T11:20:56;46.85;;;19.98;;
32523;SDS011;18965;52.242;20.886;2023-02-10T11:23:25;56.35;;;21.15;;
32523;SDS011;18965;52.242;20.886;2023-02-10T11:26:34;50.30;;;20.67;;
32523;SDS011;18965;52.242;20.886;2023-02-10T11:28:43;52.75;;;19.88;;
32523;SDS011;18965;52.242;20.886;2023-02-10T11:36:44;64.55;;;20.80;;
32523;SDS011;18965;52.242;20.886;2023-02-10T11:39:20;64.38;;;20.65;;
32523;SDS011;18965;52.242;20.886;2023-02-10T11:41:47;68.57;;;21.33;;
32523;SDS011;18965;52.242;20.886;2023-02-10T11:44:22;54.47;;;19.15;;
32523;SDS011;18965;52.242;20.886;2023-02-10T11:46:55;71.78;;;20.80;;
32523;SDS011;18965;52.242;20.886;2023-02-10T11:49:26;65.68;;;21.92;;
32523;SDS011;18965;52.242;20.886;2023-02-10T11:51:57;86.47;;;22.92;;
32523;SDS011;18965;52.242;20.886;2023-02-10T11:54:26;54.95;;;19.65;;
32523;SDS011;18965;52.242;20.886;2023-02-10T11:59:50;56.53;;;20.02;;
32523;SDS011;18965;52.242;20.886;2023-02-10T12:02:32;58.20;;;21.83;;
32523;SDS011;18965;52.242;20.886;2023-02-10T12:16:54;54.85;;;18.45;;
32523;SDS011;18965;52.242;20.886;2023-02-10T12:19:39;54.67;;;19.80;;
32523;SDS011;18965;52.242;20.886;2023-02-10T12:24:53;61.43;;;21.47;;
32523;SDS011;18965;52.242;20.886;2023-02-10T12:49:06;60.67;;;21.35;;
32523;SDS011;18965;52.242;20.886;2023-02-10T12:52:23;49.20;;;19.80;;
32523;SDS011;18965;52.242;20.886;2023-02-10T12:54:55;68.78;;;19.92;;
32523;SDS011;18965;52.242;20.886;2023-02-10T12:57:27;54.60;;;20.20;;
32523;SDS011;18965;52.242;20.886;2023-02-10T13:00:12;43.55;;;18.33;;
32523;SDS011;18965;52.242;20.886;2023-02-10T13:08:53;67.00;;;19.77;;
32523;SDS011;18965;52.242;20.886;2023-02-10T13:14:13;41.03;;;18.52;;
32523;SDS011;18965;52.242;20.886;2023-02-10T13:16:50;47.92;;;19.17;;
32523;SDS011;18965;52.242;20.886;2023-02-10T13:22:04;48.70;;;19.77;;
32523;SDS011;18965;52.242;20.886;2023-02-10T13:24:36;42.40;;;17.73;;
32523;SDS011;18965;52.242;20.886;2023-02-10T13:27:33;50.30;;;18.00;;
32523;SDS011;18965;52.242;20.886;2023-02-10T13:30:23;49.72;;;18.55;;
32523;SDS011;18965;52.242;20.886;2023-02-10T13:35:50;58.70;;;21.83;;
32523;SDS011;18965;52.242;20.886;2023-02-10T13:38:18;53.03;;;21.70;;
32523;SDS011;18965;52.242;20.886;2023-02-10T13:40:51;50.25;;;18.92;;
32523;SDS011;18965;52.242;20.886;2023-02-10T13:45:50;46.08;;;19.67;;
32523;SDS011;18965;52.242;20.886;2023-02-10T13:48:20;49.28;;;20.10;;
32523;SDS011;18965;52.242;20.886;2023-02-10T13:50:54;47.90;;;20.38;;
32523;SDS011;18965;52.242;20.886;2023-02-10T13:53:27;47.40;;;19.48;;
32523;SDS011;18965;52.242;20.886;2023-02-10T13:56:03;49.38;;;20.42;;
32523;SDS011;18965;52.242;20.886;2023-02-10T14:06:47;48.10;;;20.02;;
32523;SDS011;18965;52.242;20.886;2023-02-10T14:09:18;50.50;;;20.52;;
32523;SDS011;18965;52.242;20.886;2023-02-10T14:12:00;44.10;;;18.30;;
32523;SDS011;18965;52.242;20.886;2023-02-10T14:14:28;52.88;;;21.90;;
32523;SDS011;18965;52.242;20.886;2023-02-10T14:17:07;42.80;;;19.23;;
32523;SDS011;18965;52.242;20.886;2023-02-10T14:19:54;56.00;;;22.15;;
32523;SDS011;18965;52.242;20.886;2023-02-10T14:24:52;52.38;;;20.25;;
32523;SDS011;18965;52.242;20.886;2023-02-10T14:27:20;76.07;;;28.45;;
32523;SDS011;18965;52.242;20.886;2023-02-10T14:29:50;56.65;;;23.45;;
32523;SDS011;18965;52.242;20.886;2023-02-10T14:32:20;54.67;;;23.10;;
32523;SDS011;18965;52.242;20.886;2023-02-10T14:34:59;51.78;;;22.20;;
32523;SDS011;18965;52.242;20.886;2023-02-10T14:37:26;72.20;;;22.48;;
32523;SDS011;18965;52.242;20.886;2023-02-10T14:39:53;60.92;;;21.60;;
32523;SDS011;18965;52.242;20.886;2023-02-10T14:42:21;56.83;;;22.00;;
32523;SDS011;18965;52.242;20.886;2023-02-10T14:44:53;58.42;;;20.83;;
32523;SDS011;18965;52.242;20.886;2023-02-10T14:47:23;55.47;;;20.85;;
32523;SDS011;18965;52.242;20.886;2023-02-10T14:49:55;49.45;;;19.73;;
32523;SDS011;18965;52.242;20.886;2023-02-10T14:54:56;49.20;;;20.90;;
32523;SDS011;18965;52.242;20.886;2023-02-10T14:57:22;51.75;;;20.05;;
32523;SDS011;18965;52.242;20.886;2023-02-10T15:02:23;66.97;;;20.33;;
32523;SDS011;18965;52.242;20.886;2023-02-10T15:04:57;51.67;;;20.85;;
32523;SDS011;18965;52.242;20.886;2023-02-10T15:07:28;52.05;;;20.92;;
32523;SDS011;18965;52.242;20.886;2023-02-10T15:09:57;47.67;;;19.98;;
32523;SDS011;18965;52.242;20.886;2023-02-10T15:12:25;51.65;;;19.95;;
32523;SDS011;18965;52.242;20.886;2023-02-10T15:20:21;48.72;;;19.65;;
32523;SDS011;18965;52.242;20.886;2023-02-10T15:25:28;46.03;;;20.52;;
32523;SDS011;18965;52.242;20.886;2023-02-10T15:27:59;52.03;;;21.23;;
32523;SDS011;18965;52.242;20.886;2023-02-10T15:33:10;63.17;;;20.95;;
32523;SDS011;18965;52.242;20.886;2023-02-10T15:35:51;51.85;;;20.17;;
32523;SDS011;18965;52.242;20.886;2023-02-10T15:38:17;52.55;;;21.48;;
32523;SDS011;18965;52.242;20.886;2023-02-10T15:40:50;53.95;;;21.15;;
32523;SDS011;18965;52.242;20.886;2023-02-10T15:43:25;54.20;;;20.40;;
32523;SDS011;18965;52.242;20.886;2023-02-10T15:46:03;54.45;;;19.75;;
32523;SDS011;18965;52.242;20.886;2023-02-10T15:48:40;43.95;;;18.92;;
32523;SDS011;18965;52.242;20.886;2023-02-10T15:51:06;45.03;;;19.50;;
32523;SDS011;18965;52.242;20.886;2023-02-10T15:53:44;46.55;;;19.40;;
32523;SDS011;18965;52.242;20.886;2023-02-10T15:56:10;46.58;;;19.55;;
32523;SDS011;18965;52.242;20.886;2023-02-10T15:58:36;49.13;;;20.70;;
32523;SDS011;18965;52.242;20.886;2023-02-10T16:01:01;56.47;;;21.25;;
32523;SDS011;18965;52.242;20.886;2023-02-10T16:03:27;55.38;;;20.35;;
32523;SDS011;18965;52.242;20.886;2023-02-10T16:05:53;47.15;;;19.45;;
32523;SDS011;18965;52.242;20.886;2023-02-10T16:08:24;54.67;;;21.00;;
32523;SDS011;18965;52.242;20.886;2023-02-10T16:10:50;51.95;;;21.20;;
32523;SDS011;18965;52.242;20.886;2023-02-10T16:13:16;45.70;;;20.80;;
32523;SDS011;18965;52.242;20.886;2023-02-10T16:15:42;46.15;;;21.00;;
32523;SDS011;18965;52.242;20.886;2023-02-10T16:18:12;83.18;;;26.30;;
32523;SDS011;18965;52.242;20.886;2023-02-10T16:20:39;55.05;;;22.52;;
32523;SDS011;18965;52.242;20.886;2023-02-10T16:23:09;55.92;;;21.85;;
32523;SDS011;18965;52.242;20.886;2023-02-10T16:25:38;72.20;;;25.33;;